Time;durP1;ratioP1;P1;durP2;ratioP2;P2;SDS_P1;SDS_P2;PMS_P1;PMS_P2;Temp;Humidity;BMP_temperature;BMP_pressure;BME280_temperature;BME280_humidity;BME280_pressure;Samples;Min_cycle;Max_cycle;Signal;HPM_P1;HPM_P2
2022/04/09 00:02:07;;;;;;;;;;;4.40;99.90;;;;;;5038591;28;19956;-66
2022/04/09 00:04:32;;;;;;;;;;;4.40;99.90;;;;;;5038991;28;20007;-66
2022/04/09 00:06:58;;;;;;;;;;;4.40;99.90;;;;;;5038882;28;19920;-66
2022/04/09 00:09:23;;;;;;;;;;;4.40;99.90;;;;;;5038695;28;19913;-66
2022/04/09 00:11:49;;;;;;;;;;;4.40;99.90;;;;;;5038583;28;19936;-66
2022/04/09 00:14:15;;;;;;;;;;;4.40;99.90;;;;;;5038552;28;20070;-66
2022/04/09 00:16:40;;;;;;;;;;;4.40;99.90;;;;;;5037011;28;20329;-66
2022/04/09 00:19:06;;;;;;;;;;;4.40;99.90;;;;;;5037943;28;19960;-66
2022/04/09 00:21:32;;;;;;;;;;;4.40;99.90;;;;;;5038623;28;19913;-66
2022/04/09 00:23:57;;;;;;;;;;;4.40;99.90;;;;;;5038275;28;20380;-65
2022/04/09 00:26:23;;;;;;;;;;;4.30;99.90;;;;;;5038260;28;19910;-66
2022/04/09 00:28:49;;;;;;;;;;;4.30;99.90;;;;;;5038276;28;19952;-66
2022/04/09 00:31:14;;;;;;;;;;;4.30;99.90;;;;;;5037919;28;19919;-66
2022/04/09 00:33:40;;;;;;;;;;;4.40;99.90;;;;;;5039275;28;19913;-66
2022/04/09 00:36:05;;;;;;;;;;;4.30;99.90;;;;;;5038650;28;19963;-65
2022/04/09 00:38:31;;;;;;;;;;;4.40;99.90;;;;;;5039063;28;19920;-66
2022/04/09 00:40:56;;;;;;;;;;;4.30;99.90;;;;;;5039297;28;19999;-66
2022/04/09 00:43:22;;;;;;;;;;;4.40;99.90;;;;;;5038746;28;19932;-66
2022/04/09 00:45:48;;;;;;;;;;;4.30;99.90;;;;;;5038432;28;19924;-65
2022/04/09 00:48:14;;;;;;;;;;;4.30;99.90;;;;;;5037499;28;20288;-66
2022/04/09 00:50:39;;;;;;;;;;;4.30;99.90;;;;;;5038268;28;20003;-66
2022/04/09 00:53:06;;;;;;;;;;;4.30;99.90;;;;;;5038292;28;20005;-66
2022/04/09 00:58:15;;;;;;;;;;;4.40;99.90;;;;;;5038718;28;19962;-66
2022/04/09 01:00:42;;;;;;;;;;;4.40;99.90;;;;;;5038410;28;19913;-66
2022/04/09 01:03:09;;;;;;;;;;;4.40;99.90;;;;;;5037580;28;20342;-66
2022/04/09 01:05:35;;;;;;;;;;;4.40;99.90;;;;;;5036568;28;19917;-66
2022/04/09 01:08:02;;;;;;;;;;;4.40;99.90;;;;;;5037645;28;19970;-65
2022/04/09 01:10:28;;;;;;;;;;;4.40;99.90;;;;;;5038521;28;19960;-66
2022/04/09 01:12:53;;;;;;;;;;;4.40;99.90;;;;;;5037979;28;19979;-66
2022/04/09 01:15:19;;;;;;;;;;;4.40;99.90;;;;;;5037813;28;19960;-66
2022/04/09 01:17:44;;;;;;;;;;;4.40;99.90;;;;;;5037845;28;20809;-66
2022/04/09 01:20:16;;;;;;;;;;;4.40;99.90;;;;;;5037953;28;20435;-66
2022/04/09 01:22:42;;;;;;;;;;;4.40;99.90;;;;;;5036211;28;19945;-66
2022/04/09 01:25:07;;;;;;;;;;;4.40;99.90;;;;;;5040724;28;19964;-66
2022/04/09 01:27:33;;;;;;;;;;;4.40;99.90;;;;;;5041932;28;19984;-66
2022/04/09 01:29:59;;;;;;;;;;;4.50;99.90;;;;;;5042178;28;19910;-65
2022/04/09 01:32:24;;;;;;;;;;;4.50;99.90;;;;;;5042302;28;20305;-65
2022/04/09 01:34:52;;;;;;;;;;;4.50;99.90;;;;;;5042146;28;20301;-66
2022/04/09 01:37:18;;;;;;;;;;;4.50;99.90;;;;;;5042059;28;19916;-65
2022/04/09 01:39:43;;;;;;;;;;;4.50;99.90;;;;;;5040543;28;19913;-66
2022/04/09 01:42:10;;;;;;;;;;;4.40;99.90;;;;;;5041905;28;19982;-65
2022/04/09 01:44:36;;;;;;;;;;;4.50;99.90;;;;;;5042469;28;19917;-66
2022/04/09 01:47:02;;;;;;;;;;;4.40;99.90;;;;;;5042163;28;20300;-66
2022/04/09 01:49:27;;;;;;;;;;;4.40;99.90;;;;;;5042113;28;19931;-65
2022/04/09 01:51:52;;;;;;;;;;;4.40;99.90;;;;;;5041464;28;19921;-66
2022/04/09 01:54:18;;;;;;;;;;;4.40;99.90;;;;;;5041651;28;19916;-66
2022/04/09 01:56:43;;;;;;;;;;;4.50;99.90;;;;;;5040239;28;19920;-65
2022/04/09 01:59:09;;;;;;;;;;;4.50;99.90;;;;;;5040803;28;19913;-65
2022/04/09 02:01:34;;;;;;;;;;;4.40;99.90;;;;;;5041051;28;19915;-66
2022/04/09 02:04:00;;;;;;;;;;;4.40;99.90;;;;;;5041045;28;20047;-66
2022/04/09 02:06:25;;;;;;;;;;;4.40;99.90;;;;;;5040816;28;19917;-66
2022/04/09 02:08:51;;;;;;;;;;;4.40;99.90;;;;;;5041158;28;20346;-65
2022/04/09 02:11:16;;;;;;;;;;;4.40;99.90;;;;;;5040621;28;20000;-66
2022/04/09 02:13:42;;;;;;;;;;;4.40;99.90;;;;;;5039791;28;20343;-66
2022/04/09 02:16:07;;;;;;;;;;;4.40;99.90;;;;;;5039388;28;20254;-66
2022/04/09 02:18:33;;;;;;;;;;;4.40;99.90;;;;;;5040985;28;19919;-66
2022/04/09 02:20:58;;;;;;;;;;;4.40;99.90;;;;;;5040602;28;19986;-65
2022/04/09 02:23:23;;;;;;;;;;;4.40;99.90;;;;;;5040146;28;19913;-66
2022/04/09 02:25:49;;;;;;;;;;;4.40;99.90;;;;;;5040158;28;19913;-66
2022/04/09 02:28:14;;;;;;;;;;;4.40;99.90;;;;;;5041221;28;19909;-66
2022/04/09 02:30:40;;;;;;;;;;;4.50;99.90;;;;;;5039991;28;19917;-66
2022/04/09 02:33:05;;;;;;;;;;;4.50;99.90;;;;;;5040973;28;19910;-65
2022/04/09 02:35:31;;;;;;;;;;;4.50;99.90;;;;;;5040899;28;19939;-66
2022/04/09 02:37:57;;;;;;;;;;;4.50;99.90;;;;;;5040831;28;19913;-66
2022/04/09 02:40:22;;;;;;;;;;;4.50;99.90;;;;;;5040876;28;19917;-66
2022/04/09 02:42:48;;;;;;;;;;;4.50;99.90;;;;;;5040558;28;19914;-66
2022/04/09 02:45:13;;;;;;;;;;;4.50;99.90;;;;;;5040589;28;19924;-66
2022/04/09 02:47:39;;;;;;;;;;;4.50;99.90;;;;;;5039056;28;19943;-66
2022/04/09 02:50:06;;;;;;;;;;;4.40;99.90;;;;;;5039906;28;20490;-66
2022/04/09 02:52:38;;;;;;;;;;;4.40;99.90;;;;;;5040194;28;19996;-66
2022/04/09 02:55:05;;;;;;;;;;;4.30;99.90;;;;;;5039655;28;19912;-66
2022/04/09 02:57:30;;;;;;;;;;;4.30;99.90;;;;;;5040359;28;19979;-66
2022/04/09 02:59:56;;;;;;;;;;;4.30;99.90;;;;;;5040295;28;20373;-66
2022/04/09 03:02:21;;;;;;;;;;;4.30;99.90;;;;;;5039998;28;19917;-66
2022/04/09 03:04:47;;;;;;;;;;;4.30;99.90;;;;;;5038005;28;20407;-66
2022/04/09 03:07:12;;;;;;;;;;;4.30;99.90;;;;;;5039520;28;20349;-66
2022/04/09 03:09:38;;;;;;;;;;;4.30;99.90;;;;;;5039449;28;20433;-66
2022/04/09 03:12:04;;;;;;;;;;;4.30;99.90;;;;;;5039658;28;20261;-66
2022/04/09 03:14:29;;;;;;;;;;;4.30;99.90;;;;;;5039551;28;20281;-65
2022/04/09 03:16:55;;;;;;;;;;;4.30;99.90;;;;;;5039482;28;19920;-66
2022/04/09 03:19:20;;;;;;;;;;;4.30;99.90;;;;;;5037848;28;19913;-66
2022/04/09 03:21:46;;;;;;;;;;;4.30;99.90;;;;;;5038700;28;19913;-66
2022/04/09 03:24:11;;;;;;;;;;;4.20;99.90;;;;;;5038909;28;19912;-66
2022/04/09 03:26:37;;;;;;;;;;;4.20;99.90;;;;;;5040347;28;19919;-65
2022/04/09 03:29:03;;;;;;;;;;;4.10;99.90;;;;;;5039884;28;20346;-66
2022/04/09 03:31:29;;;;;;;;;;;4.10;99.90;;;;;;5040031;28;19913;-66
2022/04/09 03:33:54;;;;;;;;;;;4.00;99.90;;;;;;5039236;28;19967;-66
2022/04/09 03:36:20;;;;;;;;;;;4.00;99.90;;;;;;5039021;28;20377;-65
2022/04/09 03:38:45;;;;;;;;;;;4.00;99.90;;;;;;5039103;28;19936;-65
2022/04/09 03:41:11;;;;;;;;;;;4.00;99.90;;;;;;5039753;28;19932;-66
2022/04/09 03:43:36;;;;;;;;;;;4.10;99.90;;;;;;5037467;28;20003;-65
2022/04/09 03:46:03;;;;;;;;;;;4.10;99.90;;;;;;5038678;28;19917;-66
2022/04/09 03:48:29;;;;;;;;;;;4.20;99.90;;;;;;5039349;28;20385;-65
2022/04/09 03:50:54;;;;;;;;;;;4.30;99.90;;;;;;5039423;28;19996;-66
2022/04/09 03:53:20;;;;;;;;;;;4.30;99.90;;;;;;5039146;28;20313;-65
2022/04/09 03:55:46;;;;;;;;;;;4.30;99.90;;;;;;5039097;28;19909;-66
2022/04/09 03:58:13;;;;;;;;;;;4.30;99.90;;;;;;5038896;28;20362;-65
2022/04/09 04:00:39;;;;;;;;;;;4.40;99.90;;;;;;5038044;28;19913;-65
2022/04/09 04:03:07;;;;;;;;;;;4.40;99.90;;;;;;5037612;28;19962;-65
2022/04/09 04:05:33;;;;;;;;;;;4.40;99.90;;;;;;5038584;28;20286;-65
2022/04/09 04:07:58;;;;;;;;;;;4.40;99.90;;;;;;5038948;28;19984;-65
2022/04/09 04:10:23;;;;;;;;;;;4.40;99.90;;;;;;5038593;28;20366;-66
2022/04/09 04:12:49;;;;;;;;;;;4.40;99.90;;;;;;5038735;28;19909;-66
2022/04/09 04:15:15;;;;;;;;;;;4.40;99.90;;;;;;5038397;28;19919;-66
2022/04/09 04:17:41;;;;;;;;;;;4.40;99.90;;;;;;5037096;28;20332;-66
2022/04/09 04:20:07;;;;;;;;;;;4.40;99.90;;;;;;5037240;28;20000;-66
2022/04/09 04:22:33;;;;;;;;;;;4.30;99.90;;;;;;5038368;28;19910;-66
2022/04/09 04:24:58;;;;;;;;;;;4.30;99.90;;;;;;5038881;28;19917;-65
2022/04/09 04:27:23;;;;;;;;;;;4.30;99.90;;;;;;5039213;28;19917;-65
2022/04/09 04:29:49;;;;;;;;;;;4.30;99.90;;;;;;5039058;28;19913;-66
2022/04/09 04:32:14;;;;;;;;;;;4.30;99.90;;;;;;5039013;28;20266;-66
2022/04/09 04:34:40;;;;;;;;;;;4.30;99.90;;;;;;5037586;28;20512;-66
2022/04/09 04:37:05;;;;;;;;;;;4.30;99.90;;;;;;5038143;28;19916;-66
2022/04/09 04:39:30;;;;;;;;;;;4.30;99.90;;;;;;5038490;28;19916;-66
2022/04/09 04:41:56;;;;;;;;;;;4.40;99.90;;;;;;5038764;28;19999;-66
2022/04/09 04:44:21;;;;;;;;;;;4.40;99.90;;;;;;5038469;28;19921;-66
2022/04/09 04:46:47;;;;;;;;;;;4.40;99.90;;;;;;5038558;28;20362;-66
2022/04/09 04:49:12;;;;;;;;;;;4.40;99.90;;;;;;5038866;28;19909;-66
2022/04/09 04:51:37;;;;;;;;;;;4.40;99.90;;;;;;5037057;28;20270;-66
2022/04/09 04:54:03;;;;;;;;;;;4.40;99.90;;;;;;5037864;28;19913;-65
2022/04/09 04:56:29;;;;;;;;;;;4.40;99.90;;;;;;5038138;28;19963;-66
2022/04/09 04:58:54;;;;;;;;;;;4.40;99.90;;;;;;5040853;28;20263;-65
2022/04/09 05:01:20;;;;;;;;;;;4.40;99.90;;;;;;5041812;28;19909;-66
2022/04/09 05:03:45;;;;;;;;;;;4.40;99.90;;;;;;5042074;28;19992;-66
2022/04/09 05:06:11;;;;;;;;;;;4.40;99.90;;;;;;5041421;28;19960;-66
2022/04/09 05:08:38;;;;;;;;;;;4.40;99.90;;;;;;5040716;28;20016;-66
2022/04/09 05:11:04;;;;;;;;;;;4.40;99.90;;;;;;5041212;28;19909;-66
2022/04/09 05:13:29;;;;;;;;;;;4.40;99.90;;;;;;5041647;28;19909;-65
2022/04/09 05:15:55;;;;;;;;;;;4.30;99.90;;;;;;5041627;28;19992;-66
2022/04/09 05:18:20;;;;;;;;;;;4.30;99.90;;;;;;5041434;28;19909;-66
2022/04/09 05:20:45;;;;;;;;;;;4.30;99.90;;;;;;5041828;28;20158;-65
2022/04/09 05:23:11;;;;;;;;;;;4.20;99.90;;;;;;5041788;28;19953;-65
2022/04/09 05:25:36;;;;;;;;;;;4.20;99.90;;;;;;5041005;28;19931;-66
2022/04/09 05:28:04;;;;;;;;;;;4.20;99.90;;;;;;5042114;28;20527;-66
2022/04/09 05:30:29;;;;;;;;;;;4.20;99.90;;;;;;5042502;28;20215;-66
2022/04/09 05:32:55;;;;;;;;;;;4.20;99.90;;;;;;5042267;28;19912;-65
2022/04/09 05:35:20;;;;;;;;;;;4.20;99.90;;;;;;5042101;28;19970;-66
2022/04/09 05:37:46;;;;;;;;;;;4.30;99.90;;;;;;5041887;28;19990;-66
2022/04/09 05:40:12;;;;;;;;;;;4.30;99.90;;;;;;5042029;28;19909;-65
2022/04/09 05:42:38;;;;;;;;;;;4.40;99.90;;;;;;5040615;28;20365;-66
2022/04/09 05:45:03;;;;;;;;;;;4.40;99.90;;;;;;5041162;28;19923;-66
2022/04/09 05:47:29;;;;;;;;;;;4.50;99.90;;;;;;5041824;28;20370;-66
2022/04/09 05:49:57;;;;;;;;;;;4.50;99.90;;;;;;5041654;28;20006;-66
2022/04/09 05:52:22;;;;;;;;;;;4.60;99.90;;;;;;5040849;28;19925;-65
2022/04/09 05:54:48;;;;;;;;;;;4.70;99.90;;;;;;5041243;28;19909;-66
2022/04/09 05:57:14;;;;;;;;;;;4.80;99.90;;;;;;5040831;28;20431;-65
2022/04/09 05:59:39;;;;;;;;;;;4.80;99.90;;;;;;5040151;28;19917;-65
2022/04/09 06:02:05;;;;;;;;;;;4.80;99.90;;;;;;5040187;28;19913;-65
2022/04/09 06:04:31;;;;;;;;;;;4.90;99.90;;;;;;5040987;28;20342;-65
2022/04/09 06:06:56;;;;;;;;;;;5.00;99.90;;;;;;5041182;28;20015;-65
2022/04/09 06:09:21;;;;;;;;;;;5.10;99.90;;;;;;5040410;28;20020;-65
2022/04/09 06:11:47;;;;;;;;;;;5.20;99.90;;;;;;5040383;28;19913;-65
2022/04/09 06:14:13;;;;;;;;;;;5.20;99.90;;;;;;5038904;28;19920;-65
2022/04/09 06:16:40;;;;;;;;;;;5.30;99.90;;;;;;5040198;28;19909;-65
2022/04/09 06:19:06;;;;;;;;;;;5.30;99.90;;;;;;5040014;28;19986;-65
2022/04/09 06:21:35;;;;;;;;;;;5.40;99.90;;;;;;5041186;28;19913;-65
2022/04/09 06:24:00;;;;;;;;;;;5.50;99.90;;;;;;5040629;28;20373;-65
2022/04/09 06:26:27;;;;;;;;;;;5.60;99.90;;;;;;5040906;28;19913;-65
2022/04/09 06:28:52;;;;;;;;;;;5.70;99.90;;;;;;5040963;28;19913;-65
2022/04/09 06:31:18;;;;;;;;;;;5.70;99.90;;;;;;5039704;28;19913;-65
2022/04/09 06:33:43;;;;;;;;;;;5.80;99.90;;;;;;5040708;28;20300;-65
2022/04/09 06:36:09;;;;;;;;;;;5.90;99.90;;;;;;5040917;28;19952;-65
2022/04/09 06:38:34;;;;;;;;;;;5.90;99.90;;;;;;5041164;28;20402;-65
2022/04/09 06:41:00;;;;;;;;;;;5.80;99.90;;;;;;5040590;28;20016;-65
2022/04/09 06:43:26;;;;;;;;;;;5.80;99.90;;;;;;5040663;28;19913;-65
2022/04/09 06:45:52;;;;;;;;;;;5.80;99.90;;;;;;5039026;28;20336;-65
2022/04/09 06:48:17;;;;;;;;;;;5.90;99.90;;;;;;5039582;28;19917;-65
2022/04/09 06:50:43;;;;;;;;;;;6.00;99.90;;;;;;5040559;28;19909;-65
2022/04/09 06:53:08;;;;;;;;;;;6.10;99.90;;;;;;5040070;28;20379;-65
2022/04/09 06:55:34;;;;;;;;;;;6.10;99.90;;;;;;5040228;28;19909;-65
2022/04/09 06:58:01;;;;;;;;;;;6.20;99.90;;;;;;5039958;28;20005;-65
2022/04/09 07:00:26;;;;;;;;;;;6.30;99.90;;;;;;5039666;28;19960;-65
2022/04/09 07:02:52;;;;;;;;;;;6.30;99.90;;;;;;5038105;28;19956;-65
2022/04/09 07:05:17;;;;;;;;;;;6.40;99.90;;;;;;5039111;28;20113;-65
2022/04/09 07:07:46;;;;;;;;;;;6.40;99.90;;;;;;5022112;28;19909;-65
2022/04/09 07:10:11;;;;;;;;;;;6.30;99.90;;;;;;5039253;28;19909;-65
2022/04/09 07:12:38;;;;;;;;;;;6.20;99.90;;;;;;5039710;28;20336;-65
2022/04/09 07:15:04;;;;;;;;;;;6.10;99.90;;;;;;5039087;28;19919;-65
2022/04/09 07:17:30;;;;;;;;;;;6.20;99.90;;;;;;5039491;28;19908;-65
2022/04/09 07:20:03;;;;;;;;;;;6.30;99.90;;;;;;5037172;28;19917;-65
2022/04/09 07:22:28;;;;;;;;;;;6.50;99.90;;;;;;5039715;28;19919;-65
2022/04/09 07:24:55;;;;;;;;;;;6.60;99.90;;;;;;5039486;28;19932;-65
2022/04/09 07:27:21;;;;;;;;;;;6.80;99.90;;;;;;5040181;28;19909;-65
2022/04/09 07:29:47;;;;;;;;;;;6.80;99.90;;;;;;5039864;28;20003;-65
2022/04/09 07:32:12;;;;;;;;;;;6.80;99.90;;;;;;5039323;28;20373;-65
2022/04/09 07:34:38;;;;;;;;;;;6.80;99.90;;;;;;5038802;28;19909;-65
2022/04/09 07:37:04;;;;;;;;;;;6.80;99.90;;;;;;5038676;28;20089;-65
2022/04/09 07:39:29;;;;;;;;;;;6.80;99.90;;;;;;5039816;28;19920;-65
2022/04/09 07:41:55;;;;;;;;;;;6.90;99.90;;;;;;5038936;28;19940;-65
2022/04/09 07:44:22;;;;;;;;;;;6.90;99.90;;;;;;5039134;28;19912;-65
2022/04/09 07:46:48;;;;;;;;;;;7.00;99.90;;;;;;5039085;28;19988;-65
2022/04/09 07:49:13;;;;;;;;;;;7.10;99.80;;;;;;5038790;28;20338;-65
2022/04/09 07:51:39;;;;;;;;;;;7.10;99.70;;;;;;5038499;28;19913;-65
2022/04/09 07:54:04;;;;;;;;;;;7.20;99.60;;;;;;5037580;28;19917;-65
2022/04/09 07:56:29;;;;;;;;;;;7.30;99.70;;;;;;5039106;28;19982;-65
2022/04/09 07:58:55;;;;;;;;;;;7.50;99.20;;;;;;5039179;28;19913;-65
2022/04/09 08:01:20;;;;;;;;;;;7.50;99.20;;;;;;5039292;28;20514;-65
2022/04/09 08:03:46;;;;;;;;;;;7.60;99.20;;;;;;5038819;28;19935;-65
2022/04/09 08:06:11;;;;;;;;;;;7.60;98.70;;;;;;5038418;28;19927;-65
2022/04/09 08:08:38;;;;;;;;;;;7.60;98.60;;;;;;5037968;28;21362;-65
2022/04/09 08:11:05;;;;;;;;;;;7.60;98.60;;;;;;5036551;28;20297;-65
2022/04/09 08:13:30;;;;;;;;;;;7.60;98.20;;;;;;5038364;28;19920;-65
2022/04/09 08:15:56;;;;;;;;;;;7.70;98.10;;;;;;5038252;28;20333;-65
2022/04/09 08:18:21;;;;;;;;;;;7.80;97.90;;;;;;5038121;28;19913;-65
2022/04/09 08:20:46;;;;;;;;;;;7.80;97.60;;;;;;5038762;28;19913;-65
2022/04/09 08:23:12;;;;;;;;;;;7.90;97.70;;;;;;5039111;28;19912;-66
2022/04/09 08:25:37;;;;;;;;;;;7.90;97.70;;;;;;5037659;28;19917;-66
2022/04/09 08:28:03;;;;;;;;;;;8.10;97.90;;;;;;5038195;28;19971;-65
2022/04/09 08:30:29;;;;;;;;;;;8.20;97.00;;;;;;5039189;28;20391;-66
2022/04/09 08:32:56;;;;;;;;;;;8.30;96.80;;;;;;5037857;28;19909;-65
2022/04/09 08:35:22;;;;;;;;;;;8.30;97.00;;;;;;5038395;28;19964;-66
2022/04/09 08:37:55;;;;;;;;;;;8.40;96.60;;;;;;5038583;28;19909;-66
2022/04/09 08:40:23;;;;;;;;;;;8.40;95.80;;;;;;5038582;28;19952;-66
2022/04/09 08:42:49;;;;;;;;;;;8.50;95.80;;;;;;5036840;28;19988;-65
2022/04/09 08:45:15;;;;;;;;;;;8.50;96.00;;;;;;5037817;28;20004;-65
2022/04/09 08:47:42;;;;;;;;;;;8.50;96.10;;;;;;5038182;28;19920;-65
2022/04/09 08:50:09;;;;;;;;;;;8.40;96.40;;;;;;5037916;28;20004;-66
2022/04/09 08:52:37;;;;;;;;;;;8.40;96.60;;;;;;5038455;28;19909;-65
2022/04/09 08:55:03;;;;;;;;;;;8.60;96.40;;;;;;5037885;28;20380;-66
2022/04/09 08:57:28;;;;;;;;;;;8.70;96.10;;;;;;5038163;28;19909;-66
2022/04/09 08:59:55;;;;;;;;;;;8.80;94.80;;;;;;5036848;28;19920;-66
2022/04/09 09:02:20;;;;;;;;;;;8.90;95.40;;;;;;5037243;28;19913;-66
2022/04/09 09:04:46;;;;;;;;;;;8.90;95.10;;;;;;5037962;28;19924;-66
2022/04/09 09:07:18;;;;;;;;;;;9.00;94.20;;;;;;5038049;28;19952;-65
2022/04/09 09:09:43;;;;;;;;;;;8.90;94.40;;;;;;5038020;28;19909;-66
2022/04/09 09:12:10;;;;;;;;;;;8.80;94.50;;;;;;5037586;28;19913;-65
2022/04/09 09:14:36;;;;;;;;;;;8.70;95.20;;;;;;5037934;28;19912;-66
2022/04/09 09:17:02;;;;;;;;;;;8.80;95.50;;;;;;5036463;28;19963;-66
2022/04/09 09:19:50;;;;;;;;;;;8.90;95.20;;;;;;5037031;28;19913;-66
2022/04/09 09:22:16;;;;;;;;;;;9.10;94.90;;;;;;5038493;28;19917;-66
2022/04/09 09:24:41;;;;;;;;;;;9.20;94.70;;;;;;5038541;28;19920;-66
2022/04/09 09:27:07;;;;;;;;;;;9.20;94.20;;;;;;5038584;28;20385;-66
2022/04/09 09:29:33;;;;;;;;;;;9.10;94.00;;;;;;5038366;28;19967;-66
2022/04/09 09:32:00;;;;;;;;;;;8.90;94.30;;;;;;5038287;28;20388;-66
2022/04/09 09:34:25;;;;;;;;;;;8.80;94.00;;;;;;5036705;28;20388;-66
2022/04/09 09:36:51;;;;;;;;;;;8.90;93.90;;;;;;5037964;28;20002;-66
2022/04/09 09:39:18;;;;;;;;;;;9.00;93.10;;;;;;5038213;28;20278;-66
2022/04/09 09:41:50;;;;;;;;;;;9.10;93.50;;;;;;5037729;28;19909;-66
2022/04/09 09:44:16;;;;;;;;;;;9.20;93.50;;;;;;5038878;28;19967;-66
2022/04/09 09:46:43;;;;;;;;;;;9.20;93.30;;;;;;5041269;28;19910;-66
2022/04/09 09:49:08;;;;;;;;;;;9.30;93.40;;;;;;5041341;28;19913;-66
2022/04/09 09:51:34;;;;;;;;;;;9.40;93.30;;;;;;5039929;28;19916;-66
2022/04/09 09:54:06;;;;;;;;;;;9.50;92.70;;;;;;5040733;28;19923;-66
2022/04/09 09:56:37;;;;;;;;;;;9.60;92.00;;;;;;5040988;28;19910;-65
2022/04/09 09:59:05;;;;;;;;;;;9.80;91.50;;;;;;5040959;28;20441;-66
2022/04/09 10:01:31;;;;;;;;;;;9.80;91.10;;;;;;5041109;28;19913;-65
2022/04/09 10:03:57;;;;;;;;;;;9.90;90.80;;;;;;5040984;28;19913;-66
2022/04/09 10:06:22;;;;;;;;;;;9.90;90.20;;;;;;5040999;28;20477;-66
2022/04/09 10:08:48;;;;;;;;;;;9.80;91.10;;;;;;5039468;28;19917;-66
2022/04/09 10:11:16;;;;;;;;;;;9.50;91.50;;;;;;5039828;28;19909;-66
2022/04/09 10:13:43;;;;;;;;;;;9.40;91.80;;;;;;5040224;28;20308;-66
2022/04/09 10:16:10;;;;;;;;;;;9.40;91.70;;;;;;5040382;28;19910;-66
2022/04/09 10:18:35;;;;;;;;;;;9.50;93.00;;;;;;5040371;28;19915;-66
2022/04/09 10:21:02;;;;;;;;;;;9.40;92.60;;;;;;5040507;28;19925;-66
2022/04/09 10:23:32;;;;;;;;;;;9.50;92.70;;;;;;5040111;28;19917;-66
2022/04/09 10:25:58;;;;;;;;;;;9.50;92.10;;;;;;5040674;28;20459;-66
2022/04/09 10:28:34;;;;;;;;;;;9.70;90.40;;;;;;5041001;28;19909;-66
2022/04/09 10:31:00;;;;;;;;;;;9.70;88.60;;;;;;5040888;28;19913;-66
2022/04/09 10:33:28;;;;;;;;;;;9.80;89.70;;;;;;5041023;28;19995;-66
2022/04/09 10:35:55;;;;;;;;;;;10.00;90.00;;;;;;5040581;28;19909;-66
2022/04/09 10:38:22;;;;;;;;;;;10.20;90.00;;;;;;5039353;28;20429;-66
2022/04/09 10:40:49;;;;;;;;;;;10.10;87.10;;;;;;5040106;28;19913;-66
2022/04/09 10:43:23;;;;;;;;;;;10.00;90.00;;;;;;5040419;28;19966;-66
2022/04/09 10:46:00;;;;;;;;;;;9.90;90.20;;;;;;5039746;28;20373;-66
2022/04/09 10:48:30;;;;;;;;;;;9.90;90.30;;;;;;5040427;28;19913;-66
2022/04/09 10:51:08;;;;;;;;;;;9.90;90.50;;;;;;5039799;28;19909;-66
2022/04/09 10:53:35;;;;;;;;;;;10.00;90.80;;;;;;5040539;28;19909;-66
2022/04/09 10:56:12;;;;;;;;;;;10.10;90.70;;;;;;5038585;28;19924;-66
2022/04/09 10:58:57;;;;;;;;;;;10.30;89.10;;;;;;5039709;28;19916;-66
2022/04/09 11:01:42;;;;;;;;;;;10.40;90.00;;;;;;5039491;28;19955;-66
2022/04/09 11:04:36;;;;;;;;;;;10.50;89.80;;;;;;5039372;28;20324;-66
2022/04/09 11:07:10;;;;;;;;;;;10.50;91.60;;;;;;5040004;28;20389;-66
2022/04/09 11:09:41;;;;;;;;;;;10.30;92.80;;;;;;5039442;28;19970;-66
2022/04/09 11:12:07;;;;;;;;;;;10.10;93.00;;;;;;5037111;28;19967;-66
2022/04/09 11:14:42;;;;;;;;;;;9.90;93.60;;;;;;5039338;28;19960;-66
2022/04/09 11:17:18;;;;;;;;;;;9.90;94.40;;;;;;5038956;28;20525;-66
2022/04/09 11:19:44;;;;;;;;;;;10.00;93.80;;;;;;5039417;28;20363;-65
2022/04/09 11:22:10;;;;;;;;;;;9.90;94.00;;;;;;5039982;28;19936;-66
2022/04/09 11:24:36;;;;;;;;;;;9.90;93.90;;;;;;5040015;28;19919;-66
2022/04/09 11:27:01;;;;;;;;;;;10.00;94.00;;;;;;5038873;28;20431;-66
2022/04/09 11:29:31;;;;;;;;;;;9.90;93.80;;;;;;5039391;28;19916;-66
2022/04/09 11:31:56;;;;;;;;;;;10.00;94.40;;;;;;5039438;28;20328;-66
2022/04/09 11:34:22;;;;;;;;;;;10.10;94.50;;;;;;5039663;28;20055;-66
2022/04/09 11:36:51;;;;;;;;;;;10.20;94.00;;;;;;5039578;28;20293;-66
2022/04/09 11:39:17;;;;;;;;;;;10.20;92.90;;;;;;5039207;28;20305;-66
2022/04/09 11:41:46;;;;;;;;;;;10.30;92.30;;;;;;5038903;28;19909;-66
2022/04/09 11:44:25;;;;;;;;;;;10.40;92.50;;;;;;5039181;28;19935;-66
2022/04/09 11:46:51;;;;;;;;;;;10.50;92.10;;;;;;5037949;28;20019;-66
2022/04/09 11:49:18;;;;;;;;;;;10.70;91.70;;;;;;5038455;28;20015;-66
2022/04/09 11:52:04;;;;;;;;;;;10.70;88.70;;;;;;5038791;28;20274;-66
2022/04/09 11:54:30;;;;;;;;;;;10.70;88.60;;;;;;5038223;28;19932;-66
2022/04/09 11:56:55;;;;;;;;;;;10.60;90.60;;;;;;5038876;28;19909;-66
2022/04/09 11:59:20;;;;;;;;;;;10.50;91.70;;;;;;5038725;28;19912;-67
2022/04/09 12:01:46;;;;;;;;;;;10.10;96.20;;;;;;5037779;28;19909;-67
2022/04/09 12:04:13;;;;;;;;;;;9.20;97.90;;;;;;5037199;28;19917;-67
2022/04/09 12:06:38;;;;;;;;;;;8.60;99.60;;;;;;5038197;28;19921;-67
2022/04/09 12:09:04;;;;;;;;;;;8.40;99.90;;;;;;5038372;28;19931;-66
2022/04/09 12:11:29;;;;;;;;;;;8.40;99.90;;;;;;5038209;28;19908;-67
2022/04/09 12:14:06;;;;;;;;;;;8.60;99.90;;;;;;5038338;28;20309;-68
2022/04/09 12:16:36;;;;;;;;;;;8.80;99.90;;;;;;5039032;28;19909;-66
2022/04/09 12:19:03;;;;;;;;;;;8.90;99.90;;;;;;5037900;28;19986;-66
2022/04/09 12:21:31;;;;;;;;;;;8.90;99.90;;;;;;5039161;28;19980;-66
2022/04/09 12:24:09;;;;;;;;;;;8.90;99.90;;;;;;5039000;28;19912;-67
2022/04/09 12:26:35;;;;;;;;;;;9.00;99.90;;;;;;5038603;28;20337;-67
2022/04/09 12:29:05;;;;;;;;;;;9.00;99.90;;;;;;5037957;28;20004;-67
2022/04/09 12:31:32;;;;;;;;;;;9.00;99.90;;;;;;5037596;28;20388;-67
2022/04/09 12:33:58;;;;;;;;;;;9.00;99.70;;;;;;5038172;28;19915;-67
2022/04/09 12:36:23;;;;;;;;;;;8.90;99.90;;;;;;5037349;28;20015;-67
2022/04/09 12:38:49;;;;;;;;;;;8.80;99.30;;;;;;5037509;28;19936;-67
2022/04/09 12:41:14;;;;;;;;;;;8.80;99.00;;;;;;5038328;28;19919;-67
2022/04/09 12:43:41;;;;;;;;;;;8.80;98.90;;;;;;5038756;28;19909;-67
2022/04/09 12:46:09;;;;;;;;;;;8.80;99.30;;;;;;5038130;28;19914;-67
2022/04/09 12:48:49;;;;;;;;;;;8.80;99.80;;;;;;5038227;28;19936;-67
2022/04/09 12:51:18;;;;;;;;;;;8.90;99.90;;;;;;5037963;28;19909;-67
2022/04/09 12:53:43;;;;;;;;;;;8.90;99.70;;;;;;5036578;28;19913;-67
2022/04/09 12:56:10;;;;;;;;;;;8.90;99.10;;;;;;5037642;28;19920;-66
2022/04/09 12:58:36;;;;;;;;;;;8.80;99.20;;;;;;5038072;28;19986;-67
2022/04/09 13:01:03;;;;;;;;;;;8.70;99.50;;;;;;5038158;28;19913;-67
2022/04/09 13:03:28;;;;;;;;;;;8.40;99.90;;;;;;5038058;28;20401;-67
2022/04/09 13:05:54;;;;;;;;;;;8.00;99.90;;;;;;5037638;28;20047;-67
2022/04/09 13:08:19;;;;;;;;;;;7.40;99.80;;;;;;5035918;28;19967;-67
2022/04/09 13:10:45;;;;;;;;;;;7.00;99.90;;;;;;5037014;28;20427;-67
2022/04/09 13:13:10;;;;;;;;;;;6.60;99.90;;;;;;5038009;28;19909;-67
2022/04/09 13:15:36;;;;;;;;;;;6.40;99.90;;;;;;5038173;28;19909;-67
2022/04/09 13:18:01;;;;;;;;;;;6.30;99.90;;;;;;5038555;28;19912;-67
2022/04/09 13:20:27;;;;;;;;;;;6.40;99.90;;;;;;5041578;28;19978;-67
2022/04/09 13:22:52;;;;;;;;;;;6.50;99.90;;;;;;5042060;28;19917;-67
2022/04/09 13:25:19;;;;;;;;;;;6.80;99.90;;;;;;5040589;28;19917;-67
2022/04/09 13:27:46;;;;;;;;;;;7.10;99.90;;;;;;5042330;28;19913;-67
2022/04/09 13:30:11;;;;;;;;;;;7.20;99.90;;;;;;5042089;28;19913;-67
2022/04/09 13:32:37;;;;;;;;;;;7.40;99.90;;;;;;5041482;28;19913;-67
2022/04/09 13:35:03;;;;;;;;;;;7.60;99.90;;;;;;5041961;28;19936;-67
2022/04/09 13:37:28;;;;;;;;;;;7.70;99.90;;;;;;5023731;28;19952;-67
2022/04/09 13:39:54;;;;;;;;;;;7.80;99.90;;;;;;5040279;28;19917;-67
2022/04/09 13:42:20;;;;;;;;;;;8.00;99.90;;;;;;5040712;28;20322;-66
2022/04/09 13:44:45;;;;;;;;;;;8.20;99.90;;;;;;5041560;28;19913;-67
2022/04/09 13:47:12;;;;;;;;;;;8.20;99.90;;;;;;5041043;28;20345;-67
2022/04/09 13:49:37;;;;;;;;;;;8.30;99.90;;;;;;5041651;28;19967;-67
2022/04/09 13:52:03;;;;;;;;;;;8.30;99.90;;;;;;5040899;28;19912;-67
2022/04/09 13:54:29;;;;;;;;;;;8.20;99.90;;;;;;5040915;28;19909;-67
2022/04/09 13:56:54;;;;;;;;;;;8.20;99.90;;;;;;5040239;28;19967;-67
2022/04/09 13:59:20;;;;;;;;;;;8.10;99.90;;;;;;5039568;28;20046;-67
2022/04/09 14:01:45;;;;;;;;;;;8.00;99.90;;;;;;5040939;28;19939;-67
2022/04/09 14:04:11;;;;;;;;;;;8.00;99.90;;;;;;5040430;28;19924;-67
2022/04/09 14:06:36;;;;;;;;;;;8.10;99.90;;;;;;5040897;28;20397;-67
2022/04/09 14:09:01;;;;;;;;;;;8.10;99.90;;;;;;5041350;28;20392;-67
2022/04/09 14:11:28;;;;;;;;;;;8.10;99.40;;;;;;5041321;28;19913;-67
2022/04/09 14:13:53;;;;;;;;;;;8.10;99.70;;;;;;5040057;28;19920;-67
2022/04/09 14:16:19;;;;;;;;;;;8.10;99.60;;;;;;5041113;28;19912;-66
2022/04/09 14:18:44;;;;;;;;;;;8.10;99.90;;;;;;5041543;28;19908;-67
2022/04/09 14:21:10;;;;;;;;;;;8.20;99.40;;;;;;5041209;28;20522;-67
2022/04/09 14:23:35;;;;;;;;;;;8.10;99.10;;;;;;5041101;28;19909;-67
2022/04/09 14:26:01;;;;;;;;;;;8.00;99.40;;;;;;5040361;28;19917;-67
2022/04/09 14:28:26;;;;;;;;;;;7.90;99.00;;;;;;5040898;28;19916;-67